Decoded Metar for FQPB (PEMBA in MOZAMBIQUE) (IATA:POL) | Meteo·Mobile Aviation Weather
aviador You're here:

FQPB Decoded Metar

PEMBA in MOZAMBIQUE
Report Time2019-02-17 05:00:00
UTC Time2019-02-17 05:35:34
Flight Rules vfr VFR
Wind340° at 07 kt
W.Decomp.*RWY 35: 7.0 kt HW 0.5 kt LCW
RWY 26: 0.5 kt HW 7.0 kt RCW
W.Rank340° ranks 32
Current wind is above 340° avg. (6.2)
Visibility9999 m
Phenomena:N/A
Clouds:Few 020 Hf
Scattered 100 Hf
Expected CloudBase > 400 ft AGL from Temp-Dew spread
CeilingNone
Temp28°C (ISA +13)
Dew Point27°C (94% RH)
Heat Index34.5°C
QNH1013 hPa
Density Alt2,165 ft
Elevation164 ft
Report Wrong Elevation
Raw Report
FQPB 170500Z 34007KT 9999 FEW020 SCT100 28/27 Q1013=

Extra information for FQPB:More info

Metar Taf Metar & Taf Last 4 Metars F.Rules Stats Wind Profile Meteogram Temp Stats Airport Information Weather charts Add Link Nearby VenuesMetar ALERT Operation Metar Decoded Social comments